Time;durP1;ratioP1;P1;durP2;ratioP2;P2;SDS_P1;SDS_P2;PMS_P1;PMS_P2;Temp;Humidity;BMP_temperature;BMP_pressure;BME280_temperature;BME280_humidity;BME280_pressure;Samples;Min_cycle;Max_cycle;Signal;HPM_P1;HPM_P2
2024/04/13 00:02:15;;;;;;;;;;;11.10;99.90;;;9.75;100.00;99278.13;5411921;26;1827;-70
2024/04/13 00:04:42;;;;;;;;;;;10.90;99.90;;;9.68;100.00;99279.06;5433105;26;2845;-70
2024/04/13 00:07:09;;;;;;;;;;;10.90;99.90;;;9.69;100.00;99283.38;5427382;26;1882;-69
2024/04/13 00:09:36;;;;;;;;;;;10.90;99.90;;;9.70;100.00;99295.47;5430237;26;1884;-70
2024/04/13 00:12:03;;;;;;;;;;;10.90;99.90;;;9.90;100.00;99295.22;5430264;26;1910;-69
2024/04/13 00:14:33;;;;;;;;;;;;;;;9.94;100.00;99287.38;5426112;26;1861;-70
2024/04/13 00:17:01;;;;;;;;;;;11.00;99.90;;;9.82;100.00;99285.81;5428656;26;1749;-69
2024/04/13 00:19:28;;;;;;;;;;;11.00;99.90;;;9.88;100.00;99255.50;5433631;26;2307;-69
2024/04/13 00:21:55;;;;;;;;;;;10.90;99.90;;;9.91;100.00;99250.25;5433521;26;1361;-69
2024/04/13 00:24:22;;;;;;;;;;;11.00;99.90;;;9.97;100.00;99248.44;5437948;26;1586;-69
2024/04/13 00:26:49;;;;;;;;;;;10.90;99.90;;;9.93;100.00;99245.91;5434262;26;1467;-69
2024/04/13 00:29:15;;;;;;;;;;;10.90;99.90;;;9.94;100.00;99243.28;5431273;26;3748;-69
2024/04/13 00:31:42;;;;;;;;;;;11.00;99.90;;;9.82;100.00;99239.13;5428352;26;1364;-69
2024/04/13 00:34:09;;;;;;;;;;;11.00;99.90;;;9.74;100.00;99238.38;5430250;26;1524;-70
2024/04/13 00:36:36;;;;;;;;;;;10.90;99.90;;;9.62;100.00;99241.97;5434306;26;1399;-69
2024/04/13 00:39:06;;;;;;;;;;;10.90;99.90;;;9.58;100.00;99252.41;5429374;26;1444;-69
2024/04/13 00:41:33;;;;;;;;;;;10.70;99.90;;;9.57;100.00;99256.72;5433537;26;1370;-70
2024/04/13 00:44:00;;;;;;;;;;;10.60;99.90;;;9.58;100.00;99257.59;5439356;26;2409;-69
2024/04/13 00:46:31;;;;;;;;;;;10.40;99.90;;;9.59;100.00;99261.88;5430971;26;1356;-69
2024/04/13 00:48:59;;;;;;;;;;;10.30;99.90;;;9.55;100.00;99257.59;5423151;26;1884;-69
2024/04/13 00:51:29;;;;;;;;;;;10.30;99.90;;;9.60;100.00;99261.00;5429573;26;1399;-69
2024/04/13 00:53:56;;;;;;;;;;;10.30;99.90;;;9.60;100.00;99267.06;5435664;26;1623;-70
2024/04/13 00:56:23;;;;;;;;;;;10.30;99.90;;;9.86;100.00;99267.63;5430066;26;2537;-69
2024/04/13 00:58:51;;;;;;;;;;;10.50;99.90;;;9.79;100.00;99265.09;5425851;26;1567;-70
2024/04/13 01:01:18;;;;;;;;;;;10.50;99.90;;;9.77;100.00;99260.81;5431034;26;1339;-69
2024/04/13 01:03:45;;;;;;;;;;;10.60;99.90;;;9.66;100.00;99253.16;5433676;26;1610;-69
2024/04/13 01:06:13;;;;;;;;;;;10.50;99.90;;;9.61;100.00;99257.56;5441310;26;1359;-69
2024/04/13 01:08:40;;;;;;;;;;;10.40;99.90;;;9.57;100.00;99259.31;5431370;26;1837;-69
2024/04/13 01:11:08;;;;;;;;;;;10.30;99.90;;;9.50;100.00;99257.66;5427848;26;3888;-69
2024/04/13 01:13:37;;;;;;;;;;;10.30;99.90;;;9.59;100.00;99262.75;5428931;26;2841;-69
2024/04/13 01:16:05;;;;;;;;;;;10.30;99.90;;;9.58;100.00;99262.78;5433188;26;1510;-69
2024/04/13 01:18:32;;;;;;;;;;;10.40;99.90;;;9.73;100.00;99262.56;5436729;26;1398;-69
2024/04/13 01:20:59;;;;;;;;;;;10.40;99.90;;;9.52;100.00;99257.66;5426538;26;1384;-70
2024/04/13 01:23:29;;;;;;;;;;;10.40;99.90;;;9.53;100.00;99265.41;5440623;26;1375;-69
2024/04/13 01:25:56;;;;;;;;;;;10.40;99.90;;;9.53;100.00;99264.53;5433500;26;1449;-69
2024/04/13 01:28:23;;;;;;;;;;;10.40;99.90;;;9.43;100.00;99250.84;5429148;26;2120;-70
2024/04/13 01:30:52;;;;;;;;;;;10.40;99.90;;;9.47;100.00;99256.84;5430374;26;1538;-71
2024/04/13 01:33:19;;;;;;;;;;;10.30;99.90;;;9.44;100.00;99262.91;5432034;26;1308;-69
2024/04/13 01:35:46;;;;;;;;;;;10.40;99.90;;;9.42;100.00;99251.72;5437995;26;1349;-70
2024/04/13 01:38:13;;;;;;;;;;;10.40;99.90;;;9.36;100.00;99256.97;5433967;26;1503;-69
2024/04/13 01:40:39;;;;;;;;;;;10.40;99.90;;;9.45;100.00;99256.00;5431503;26;2079;-69
2024/04/13 01:43:06;;;;;;;;;;;10.30;99.90;;;9.27;100.00;99264.84;5424915;26;1248;-70
2024/04/13 01:45:33;;;;;;;;;;;10.20;99.90;;;9.30;100.00;99265.66;5433634;26;1470;-69
2024/04/13 01:48:00;;;;;;;;;;;10.20;99.90;;;9.14;100.00;99264.09;5433529;26;1467;-69
2024/04/13 01:50:27;;;;;;;;;;;10.10;99.90;;;9.07;100.00;99267.63;5438963;26;1879;-69
2024/04/13 01:52:54;;;;;;;;;;;10.10;99.90;;;9.11;100.00;99261.53;5429985;26;1420;-69
2024/04/13 01:55:21;;;;;;;;;;;10.10;99.90;;;9.24;100.00;99262.25;5426454;26;3707;-69
2024/04/13 01:57:48;;;;;;;;;;;10.10;99.90;;;9.17;100.00;99258.91;5431699;26;1327;-69
2024/04/13 02:00:15;;;;;;;;;;;10.10;99.90;;;9.29;100.00;99266.53;5428730;26;1422;-70
2024/04/13 02:02:42;;;;;;;;;;;10.20;99.90;;;9.17;100.00;99256.31;5430473;26;1367;-70
2024/04/13 02:05:09;;;;;;;;;;;10.20;99.90;;;9.32;100.00;99263.91;5424526;26;1415;-69
2024/04/13 02:07:36;;;;;;;;;;;10.30;99.90;;;9.30;100.00;99254.44;5431593;26;1324;-69
2024/04/13 02:10:03;;;;;;;;;;;10.30;99.90;;;9.24;100.00;99251.91;5432054;26;2483;-69
2024/04/13 02:12:30;;;;;;;;;;;10.30;99.90;;;9.27;100.00;99247.56;5425995;26;1312;-69
2024/04/13 02:14:57;;;;;;;;;;;10.30;99.90;;;9.19;100.00;99246.75;5429406;26;1560;-69
2024/04/13 02:17:24;;;;;;;;;;;10.20;99.90;;;9.15;100.00;99242.50;5427887;26;1370;-69
2024/04/13 02:19:51;;;;;;;;;;;10.20;99.90;;;9.21;100.00;99243.31;5432489;26;1365;-69
2024/04/13 02:22:18;;;;;;;;;;;10.20;99.90;;;9.28;100.00;99235.44;5430109;26;1471;-69
2024/04/13 02:24:46;;;;;;;;;;;10.20;99.90;;;9.21;100.00;99229.47;5437441;26;2231;-70
2024/04/13 02:27:13;;;;;;;;;;;10.10;99.90;;;9.14;100.00;99226.09;5430858;26;2714;-68
2024/04/13 02:29:43;;;;;;;;;;;10.10;99.90;;;8.97;100.00;99221.09;5436215;26;1884;-69
2024/04/13 02:32:10;;;;;;;;;;;10.10;99.90;;;8.88;100.00;99217.72;5429180;26;1570;-69
2024/04/13 02:34:37;;;;;;;;;;;10.10;99.90;;;8.98;100.00;99216.75;5433169;26;1359;-69
2024/04/13 02:37:04;;;;;;;;;;;10.10;99.90;;;8.73;100.00;99223.91;5432122;26;1316;-69
2024/04/13 02:39:32;;;;;;;;;;;10.00;99.90;;;8.78;100.00;99224.72;5437933;26;1367;-70
2024/04/13 02:41:59;;;;;;;;;;;9.90;99.90;;;8.96;100.00;99229.75;5428470;26;3948;-69
2024/04/13 02:44:26;;;;;;;;;;;10.00;99.90;;;8.94;100.00;99236.66;5430128;26;1438;-69
2024/04/13 02:46:53;;;;;;;;;;;10.00;99.90;;;8.79;100.00;99229.03;5433664;26;1490;-69
2024/04/13 02:49:19;;;;;;;;;;;9.90;99.90;;;8.73;100.00;99229.06;5424898;26;1845;-69
2024/04/13 02:51:47;;;;;;;;;;;9.90;99.90;;;8.76;100.00;99222.16;5429428;26;1356;-69
2024/04/13 02:54:14;;;;;;;;;;;9.90;99.90;;;8.82;100.00;99228.13;5429777;26;1336;-69
2024/04/13 02:56:41;;;;;;;;;;;9.90;99.90;;;8.91;100.00;99228.06;5430076;26;2556;-69
2024/04/13 02:59:07;;;;;;;;;;;9.90;99.90;;;8.93;100.00;99226.31;5428417;26;1476;-69
2024/04/13 03:01:34;;;;;;;;;;;9.90;99.90;;;8.75;100.00;99214.38;5431085;26;1335;-69
2024/04/13 03:04:01;;;;;;;;;;;9.80;99.90;;;8.59;100.00;99211.06;5431427;26;1945;-69
2024/04/13 03:06:28;;;;;;;;;;;9.80;99.90;;;8.57;100.00;99213.66;5426807;26;1379;-69
2024/04/13 03:08:55;;;;;;;;;;;9.70;99.90;;;8.46;100.00;99209.44;5430231;26;1880;-69
2024/04/13 03:11:22;;;;;;;;;;;9.60;99.90;;;8.55;100.00;99218.03;5424204;26;2152;-68
2024/04/13 03:13:49;;;;;;;;;;;9.60;99.90;;;8.67;100.00;99227.41;5424793;26;1371;-69
2024/04/13 03:16:17;;;;;;;;;;;9.60;99.90;;;8.75;100.00;99216.97;5420684;26;1415;-69
2024/04/13 03:18:44;;;;;;;;;;;9.70;99.90;;;8.75;100.00;99209.22;5424727;26;2742;-69
2024/04/13 03:21:12;;;;;;;;;;;9.70;99.90;;;8.72;100.00;99209.25;5420190;26;1429;-69
2024/04/13 03:23:40;;;;;;;;;;;9.80;99.90;;;8.71;100.00;99212.69;5432226;26;1277;-70
2024/04/13 03:26:08;;;;;;;;;;;9.70;99.90;;;8.64;100.00;99206.72;5431157;26;1332;-69
2024/04/13 03:28:35;;;;;;;;;;;9.60;99.90;;;8.69;100.00;99199.78;5439103;26;1379;-69
2024/04/13 03:31:03;;;;;;;;;;;9.60;99.90;;;8.64;100.00;99204.13;5429031;26;3802;-68
2024/04/13 03:33:31;;;;;;;;;;;9.70;99.90;;;8.56;100.00;99209.38;5427899;26;1399;-70
2024/04/13 03:36:02;;;;;;;;;;;9.60;99.90;;;8.61;100.00;99198.97;5428673;26;1988;-69
2024/04/13 03:38:29;;;;;;;;;;;9.60;99.90;;;8.46;100.00;99194.81;5429505;26;1359;-69
2024/04/13 03:41:05;;;;;;;;;;;9.70;99.90;;;8.69;100.00;99188.53;5435172;26;1382;-70
2024/04/13 03:43:36;;;;;;;;;;;9.70;99.90;;;8.58;100.00;99192.09;5406661;26;1390;-70
2024/04/13 03:46:06;;;;;;;;;;;9.60;99.90;;;8.57;100.00;99192.97;5425659;26;2236;-70
2024/04/13 03:48:33;;;;;;;;;;;9.60;99.90;;;8.53;100.00;99190.41;5427036;26;1558;-69
2024/04/13 03:51:01;;;;;;;;;;;9.60;99.90;;;8.41;100.00;99188.78;5427456;26;1881;-70
2024/04/13 03:53:28;;;;;;;;;;;9.60;99.90;;;8.33;100.00;99188.81;5438077;26;1488;-69
2024/04/13 03:55:55;;;;;;;;;;;9.50;99.90;;;8.27;100.00;99191.44;5428043;26;1356;-69
2024/04/13 03:58:21;;;;;;;;;;;9.40;99.90;;;8.21;100.00;99193.22;5429658;26;1518;-69
2024/04/13 04:00:48;;;;;;;;;;;9.30;99.90;;;8.10;100.00;99188.16;5435878;26;2306;-69
2024/04/13 04:03:16;;;;;;;;;;;9.20;99.90;;;7.98;100.00;99189.06;5421326;26;1462;-69
2024/04/13 04:05:47;;;;;;;;;;;9.10;99.90;;;8.07;100.00;99190.72;5426595;26;1398;-70
2024/04/13 04:08:14;;;;;;;;;;;9.10;99.90;;;8.02;100.00;99189.91;5427373;26;1378;-69
2024/04/13 04:10:41;;;;;;;;;;;9.10;99.90;;;8.02;100.00;99184.75;5427590;26;1878;-69
2024/04/13 04:13:08;;;;;;;;;;;9.00;99.90;;;7.92;100.00;99191.69;5423045;26;3773;-69
2024/04/13 04:15:35;;;;;;;;;;;8.90;99.90;;;7.73;100.00;99194.41;5432118;26;1316;-69
2024/04/13 04:18:03;;;;;;;;;;;8.80;99.90;;;7.66;100.00;99192.72;5427363;26;1454;-69
2024/04/13 04:20:31;;;;;;;;;;;8.80;99.90;;;7.73;100.00;99198.69;5440735;26;1325;-69
2024/04/13 04:22:58;;;;;;;;;;;8.70;99.90;;;7.68;100.00;99195.25;5432859;26;1475;-69
2024/04/13 04:25:25;;;;;;;;;;;8.60;99.90;;;7.62;100.00;99193.59;5433001;26;1366;-69
2024/04/13 04:27:52;;;;;;;;;;;8.60;99.90;;;7.73;100.00;99203.84;5437790;26;2698;-69
2024/04/13 04:30:18;;;;;;;;;;;8.70;99.90;;;7.78;100.00;99199.53;5438980;26;2746;-69
2024/04/13 04:32:45;;;;;;;;;;;8.80;99.90;;;7.82;100.00;99201.22;5429916;26;1343;-69
2024/04/13 04:35:12;;;;;;;;;;;8.80;99.90;;;7.75;100.00;99196.94;5427382;26;1404;-69
2024/04/13 04:37:39;;;;;;;;;;;8.90;99.90;;;7.84;100.00;99201.22;5400069;26;1360;-69
2024/04/13 04:40:08;;;;;;;;;;;8.90;99.90;;;7.92;100.00;99199.47;5431842;26;1880;-69
2024/04/13 04:42:35;;;;;;;;;;;9.00;99.90;;;7.95;100.00;99195.09;5432008;26;2361;-68
2024/04/13 04:45:04;;;;;;;;;;;9.00;99.90;;;8.04;100.00;99193.34;5432388;26;1323;-69
2024/04/13 04:47:33;;;;;;;;;;;9.00;99.90;;;7.92;100.00;99189.13;5433203;26;1495;-69
2024/04/13 04:50:00;;;;;;;;;;;9.00;99.90;;;7.91;100.00;99190.84;5429985;26;1372;-69
2024/04/13 04:52:27;;;;;;;;;;;9.10;99.90;;;7.97;100.00;99175.28;5429852;26;1398;-69
2024/04/13 04:54:59;;;;;;;;;;;9.00;99.90;;;7.93;100.00;99183.91;5428496;26;1499;-70
2024/04/13 04:57:26;;;;;;;;;;;9.10;99.90;;;8.05;100.00;99183.00;5425662;26;3755;-69
2024/04/13 04:59:52;;;;;;;;;;;9.10;99.90;;;7.96;100.00;99183.06;5430150;26;1853;-69
2024/04/13 05:02:19;;;;;;;;;;;9.00;99.90;;;7.99;100.00;99183.03;5426248;26;1232;-69
2024/04/13 05:04:46;;;;;;;;;;;9.00;99.90;;;7.89;100.00;99177.06;5433323;26;1935;-69
2024/04/13 05:07:13;;;;;;;;;;;9.00;99.90;;;7.79;100.00;99183.16;5427173;26;2110;-69
2024/04/13 05:09:40;;;;;;;;;;;9.00;99.90;;;7.89;100.00;99183.94;5427489;26;1308;-69
2024/04/13 05:12:07;;;;;;;;;;;8.80;99.90;;;7.82;100.00;99180.53;5421804;26;2723;-69
2024/04/13 05:14:34;;;;;;;;;;;8.70;99.90;;;7.70;100.00;99181.47;5437314;26;1359;-69
2024/04/13 05:17:01;;;;;;;;;;;8.60;99.90;;;7.65;100.00;99185.81;5429346;26;1388;-69
2024/04/13 05:19:29;;;;;;;;;;;8.60;99.90;;;7.79;100.00;99185.72;5425697;26;1897;-69
2024/04/13 05:21:56;;;;;;;;;;;8.60;99.90;;;7.75;100.00;99186.59;5429034;26;1416;-68
2024/04/13 05:24:23;;;;;;;;;;;8.50;99.90;;;7.84;100.00;99198.63;5428725;26;1356;-69
2024/04/13 05:26:55;;;;;;;;;;;8.60;99.90;;;7.75;100.00;99197.84;5432865;26;2111;-69
2024/04/13 05:29:22;;;;;;;;;;;8.60;99.90;;;7.84;100.00;99204.66;5430070;26;1339;-69
2024/04/13 05:31:49;;;;;;;;;;;8.80;99.90;;;8.04;100.00;99207.13;5437956;26;1411;-69
2024/04/13 05:34:16;;;;;;;;;;;8.90;99.90;;;8.02;100.00;99208.88;5428313;26;1332;-69
2024/04/13 05:36:45;;;;;;;;;;;8.90;99.90;;;8.01;100.00;99211.47;5430795;26;1362;-69
2024/04/13 05:39:14;;;;;;;;;;;8.90;99.90;;;8.23;100.00;99217.34;5425691;26;1479;-69
2024/04/13 05:41:41;;;;;;;;;;;9.00;99.90;;;8.59;100.00;99211.06;5428773;26;4157;-69
2024/04/13 05:44:08;;;;;;;;;;;9.10;99.90;;;8.85;100.00;99210.84;5431267;26;1480;-69
2024/04/13 05:46:35;;;;;;;;;;;9.30;99.90;;;8.95;100.00;99212.47;5422809;26;1426;-69
2024/04/13 05:49:02;;;;;;;;;;;9.50;99.90;;;9.31;100.00;99209.53;5430734;26;1318;-69
2024/04/13 05:51:29;;;;;;;;;;;9.80;99.90;;;9.38;100.00;99198.22;5431685;26;1337;-69
2024/04/13 05:53:56;;;;;;;;;;;9.90;99.90;;;9.16;100.00;99189.81;5427682;26;1414;-69
2024/04/13 05:56:22;;;;;;;;;;;10.00;99.90;;;9.35;100.00;99193.91;5428520;26;2250;-69
2024/04/13 05:58:49;;;;;;;;;;;10.00;99.90;;;9.55;100.00;99188.47;5423902;26;1375;-69
2024/04/13 06:01:16;;;;;;;;;;;10.10;99.90;;;9.84;100.00;99187.25;5436020;26;1848;-69
2024/04/13 06:03:43;;;;;;;;;;;10.30;99.90;;;10.10;100.00;99179.06;5428773;26;1410;-69
2024/04/13 06:06:10;;;;;;;;;;;10.50;99.90;;;10.25;100.00;99173.66;5432357;26;1570;-68
2024/04/13 06:08:37;;;;;;;;;;;10.60;99.90;;;10.39;100.00;99168.28;5432135;26;1361;-69
2024/04/13 06:11:04;;;;;;;;;;;10.60;99.90;;;10.28;100.00;99164.97;5423719;26;2174;-69
2024/04/13 06:13:31;;;;;;;;;;;10.80;99.90;;;10.15;100.00;99160.84;5423984;26;1561;-69
2024/04/13 06:16:02;;;;;;;;;;;10.80;99.90;;;10.20;100.00;99153.84;5436644;26;1585;-69
2024/04/13 06:18:28;;;;;;;;;;;10.80;99.90;;;10.37;100.00;99148.41;5428050;26;1356;-69
2024/04/13 06:20:55;;;;;;;;;;;10.80;99.90;;;10.27;100.00;99155.47;5431840;26;1898;-70
2024/04/13 06:23:22;;;;;;;;;;;10.80;99.90;;;10.05;100.00;99147.16;5436405;26;1463;-69
2024/04/13 06:25:49;;;;;;;;;;;10.80;99.90;;;10.49;100.00;99145.63;5429925;26;3815;-69
2024/04/13 06:28:16;;;;;;;;;;;10.90;99.90;;;10.81;100.00;99144.19;5428015;26;3034;-69
2024/04/13 06:30:43;;;;;;;;;;;11.00;99.90;;;10.62;100.00;99144.50;5429911;26;1496;-69
2024/04/13 06:33:13;;;;;;;;;;;11.20;99.90;;;10.77;100.00;99137.34;5427823;26;1071;-69
2024/04/13 06:35:40;;;;;;;;;;;11.30;99.90;;;10.78;100.00;99137.28;5434626;26;1319;-70
2024/04/13 06:38:07;;;;;;;;;;;11.30;99.90;;;10.91;100.00;99137.09;5424631;26;1121;-69
2024/04/13 06:40:35;;;;;;;;;;;11.40;99.90;;;11.11;100.00;99145.34;5430820;26;1840;-69
2024/04/13 06:43:02;;;;;;;;;;;11.50;99.90;;;11.10;100.00;99141.03;5428180;26;2809;-69
2024/04/13 06:45:29;;;;;;;;;;;11.50;99.90;;;11.19;100.00;99140.84;5430727;26;1286;-70
2024/04/13 06:47:56;;;;;;;;;;;11.70;99.90;;;11.52;100.00;99138.44;5428109;26;1143;-70
2024/04/13 06:50:23;;;;;;;;;;;11.80;99.90;;;11.67;100.00;99142.44;5430076;26;1173;-70
2024/04/13 06:52:49;;;;;;;;;;;12.00;99.90;;;11.98;100.00;99137.44;5426883;26;2243;-70
2024/04/13 06:55:16;;;;;;;;;;;12.00;99.90;;;12.09;100.00;99134.59;5428388;26;1301;-70
2024/04/13 06:57:43;;;;;;;;;;;12.20;99.90;;;12.29;100.00;99136.69;5425543;26;2539;-70
2024/04/13 07:00:11;;;;;;;;;;;12.50;99.90;;;12.51;100.00;99132.66;5425670;26;1845;-70
2024/04/13 07:02:37;;;;;;;;;;;12.80;99.90;;;12.89;100.00;99125.59;5430464;26;1305;-71
2024/04/13 07:05:07;;;;;;;;;;;13.00;99.90;;;12.84;100.00;99124.00;5426979;26;1301;-70
2024/04/13 07:07:33;;;;;;;;;;;13.20;99.90;;;12.72;100.00;99115.63;5427157;26;3747;-69
2024/04/13 07:10:01;;;;;;;;;;;13.30;99.90;;;12.88;100.00;99126.47;5423477;26;1096;-70
2024/04/13 07:12:27;;;;;;;;;;;13.50;99.90;;;13.04;100.00;99119.09;5421336;26;2807;-69
2024/04/13 07:14:54;;;;;;;;;;;13.50;99.90;;;12.83;100.00;99117.09;5422718;26;1234;-70
2024/04/13 07:17:21;;;;;;;;;;;13.40;99.90;;;12.90;100.00;99116.03;5428430;26;1251;-70
2024/04/13 07:19:48;;;;;;;;;;;13.60;99.90;;;13.11;100.00;99101.53;5430626;26;1295;-69
2024/04/13 07:22:15;;;;;;;;;;;13.70;99.90;;;13.29;100.00;99102.78;5428624;26;1958;-70
2024/04/13 07:24:42;;;;;;;;;;;13.80;99.90;;;13.33;100.00;99099.19;5430009;26;1374;-70
2024/04/13 07:27:09;;;;;;;;;;;13.90;99.90;;;13.62;100.00;99085.28;5437156;26;2341;-70
2024/04/13 07:29:36;;;;;;;;;;;14.10;99.90;;;13.85;100.00;99084.56;5425236;26;1133;-70
2024/04/13 07:32:03;;;;;;;;;;;14.30;99.90;;;14.02;100.00;99079.63;5427066;26;1084;-70
2024/04/13 07:34:30;;;;;;;;;;;14.50;99.90;;;14.33;100.00;99070.81;5423819;26;1933;-69
2024/04/13 07:36:57;;;;;;;;;;;14.70;99.90;;;14.46;100.00;99075.59;5423497;26;1357;-70
2024/04/13 07:39:24;;;;;;;;;;;14.80;99.90;;;14.67;100.00;99069.66;5428508;26;2474;-70
2024/04/13 07:41:50;;;;;;;;;;;15.00;99.90;;;14.77;100.00;99070.19;5427043;26;1837;-70
2024/04/13 07:44:17;;;;;;;;;;;15.10;99.90;;;15.01;100.00;99055.38;5424579;26;1095;-69
2024/04/13 07:46:44;;;;;;;;;;;15.30;99.90;;;15.37;100.00;99049.66;5426758;26;1337;-70
2024/04/13 07:49:11;;;;;;;;;;;15.60;99.90;;;15.62;100.00;99047.81;5423738;26;1087;-70
2024/04/13 07:51:38;;;;;;;;;;;15.80;99.90;;;15.87;100.00;99044.22;5429045;26;1241;-69
2024/04/13 07:54:05;;;;;;;;;;;16.10;99.90;;;16.10;100.00;99038.91;5424754;26;3783;-70
2024/04/13 07:56:32;;;;;;;;;;;16.40;99.90;;;16.44;100.00;99028.72;5436282;26;1332;-70
2024/04/13 07:58:59;;;;;;;;;;;16.80;99.90;;;16.76;100.00;99013.34;5435645;26;1479;-70
2024/04/13 08:01:26;;;;;;;;;;;17.00;99.90;;;17.00;100.00;99006.19;5439237;26;1882;-69
2024/04/13 08:03:52;;;;;;;;;;;17.30;99.90;;;17.33;100.00;98995.88;5432215;26;1388;-70
2024/04/13 08:06:20;;;;;;;;;;;17.50;99.90;;;17.14;100.00;98993.28;5431690;26;1465;-69
2024/04/13 08:08:47;;;;;;;;;;;17.60;99.90;;;17.44;100.00;98982.25;5428601;26;1711;-70
2024/04/13 08:11:13;;;;;;;;;;;17.50;99.90;;;17.60;100.00;98967.44;5427092;26;2969;-70
2024/04/13 08:13:40;;;;;;;;;;;17.50;99.90;;;17.71;100.00;98957.25;5427588;26;1516;-70
2024/04/13 08:16:07;;;;;;;;;;;17.60;99.90;;;18.32;100.00;98949.84;5411909;26;1304;-70
2024/04/13 08:18:34;;;;;;;;;;;17.90;99.90;;;18.54;100.00;98939.91;5430091;26;1317;-70
2024/04/13 08:21:01;;;;;;;;;;;18.30;99.90;;;19.21;100.00;98927.47;5434597;26;1939;-70
2024/04/13 08:23:28;;;;;;;;;;;18.80;99.90;;;19.62;100.00;98916.38;5427030;26;2208;-70
2024/04/13 08:26:03;;;;;;;;;;;19.30;99.90;;;20.17;100.00;98903.50;5435834;26;2745;-70
2024/04/13 08:28:29;;;;;;;;;;;19.90;99.90;;;20.43;100.00;98894.84;5435426;26;1538;-70
2024/04/13 08:30:56;;;;;;;;;;;20.40;99.90;;;20.67;100.00;98881.09;5425188;26;1415;-70
2024/04/13 08:33:23;;;;;;;;;;;20.90;99.90;;;19.99;100.00;98879.13;5424871;26;1625;-70
2024/04/13 08:36:03;;;;;;;;;;;21.10;99.90;;;19.42;100.00;98888.53;5430452;26;1466;-70
2024/04/13 08:38:31;;;;;;;;;;;21.00;99.90;;;19.54;100.00;98883.50;5435845;26;3982;-70
2024/04/13 08:41:03;;;;;;;;;;;20.80;99.90;;;19.74;100.00;98893.75;5431600;26;1837;-69
2024/04/13 08:43:30;;;;;;;;;;;20.70;99.90;;;20.04;100.00;98866.50;5427106;26;1684;-70
2024/04/13 08:46:03;;;;;;;;;;;20.50;99.90;;;19.70;100.00;98872.94;5426972;26;1242;-70
2024/04/13 08:48:31;;;;;;;;;;;20.50;99.90;;;19.95;100.00;98867.91;5426901;26;1562;-70
2024/04/13 08:51:00;;;;;;;;;;;20.70;99.90;;;20.47;100.00;98863.84;5426440;26;1348;-68
2024/04/13 08:53:29;;;;;;;;;;;20.90;99.90;;;20.44;100.00;98845.59;5405889;26;2615;-70
2024/04/13 08:55:58;;;;;;;;;;;20.50;99.90;;;19.87;100.00;98846.44;5440319;26;1371;-70
2024/04/13 08:58:26;;;;;;;;;;;20.50;99.90;;;19.70;100.00;98849.25;5435735;26;1640;-69
2024/04/13 09:00:59;;;;;;;;;;;20.60;99.90;;;19.78;100.00;98844.38;5429841;26;1909;-70
2024/04/13 09:03:27;;;;;;;;;;;20.50;99.90;;;20.01;100.00;98845.63;5431299;26;1880;-70
2024/04/13 09:05:54;;;;;;;;;;;20.40;99.90;;;20.61;100.00;98847.19;5432183;26;1460;-70
2024/04/13 09:08:22;;;;;;;;;;;20.70;99.90;;;21.13;100.00;98833.25;5431338;26;2547;-70
2024/04/13 09:10:54;;;;;;;;;;;20.50;99.90;;;20.70;100.00;98843.97;5430719;26;2631;-69
2024/04/13 09:13:21;;;;;;;;;;;20.70;99.90;;;20.50;100.00;98826.72;5432149;26;1605;-70
2024/04/13 09:15:47;;;;;;;;;;;21.20;99.90;;;21.10;100.00;98818.47;5423881;26;1619;-70
2024/04/13 09:18:15;;;;;;;;;;;21.30;99.90;;;20.58;100.00;98813.09;5423503;26;1476;-70
2024/04/13 09:20:42;;;;;;;;;;;21.70;99.90;;;21.10;100.00;98807.91;5442185;26;1599;-70
2024/04/13 09:23:10;;;;;;;;;;;21.60;99.90;;;20.94;100.00;98806.38;5437217;26;1630;-70
2024/04/13 09:25:37;;;;;;;;;;;21.40;99.90;;;20.93;100.00;98810.81;5431379;26;3837;-70
2024/04/13 09:28:04;;;;;;;;;;;21.70;99.90;;;21.26;100.00;98806.91;5427899;26;1488;-70
2024/04/13 09:30:31;;;;;;;;;;;21.90;99.90;;;21.66;100.00;98798.94;5427275;26;1580;-69
2024/04/13 09:33:03;;;;;;;;;;;21.90;99.90;;;20.63;100.00;98806.56;5437418;26;1983;-69
2024/04/13 09:35:30;;;;;;;;;;;21.90;99.90;;;21.58;100.00;98796.00;5441482;26;1598;-69
2024/04/13 09:38:01;;;;;;;;;;;22.10;99.90;;;21.90;100.00;98789.31;5424660;26;1671;-70
2024/04/13 09:40:31;;;;;;;;;;;22.00;99.90;;;21.17;100.00;98786.41;5429668;26;2332;-69
2024/04/13 09:43:01;;;;;;;;;;;21.90;99.90;;;21.70;100.00;98774.84;5405656;26;1651;-70
2024/04/13 09:45:28;;;;;;;;;;;21.80;99.90;;;21.24;100.00;98771.81;5429517;26;1360;-69
2024/04/13 09:47:58;;;;;;;;;;;21.90;99.90;;;21.73;100.00;98771.13;5429780;26;1214;-70
2024/04/13 09:50:27;;;;;;;;;;;22.00;99.90;;;21.70;100.00;98758.16;5427192;26;1578;-70
2024/04/13 09:52:57;;;;;;;;;;;22.50;99.90;;;21.88;100.00;98746.28;5429886;26;2692;-70
2024/04/13 09:55:24;;;;;;;;;;;22.70;99.90;;;22.69;100.00;98741.41;5428804;26;1275;-70
2024/04/13 09:57:51;;;;;;;;;;;23.30;99.90;;;22.07;100.00;98739.69;5429911;26;1820;-69
2024/04/13 10:00:19;;;;;;;;;;;23.00;99.90;;;21.39;100.00;98739.06;5438888;26;1480;-70
2024/04/13 10:02:46;;;;;;;;;;;23.00;99.90;;;21.93;100.00;98743.31;5426691;26;1663;-70
2024/04/13 10:05:13;;;;;;;;;;;22.30;99.90;;;21.37;100.00;98746.28;5427978;26;1640;-70
2024/04/13 10:07:40;;;;;;;;;;;22.10;99.90;;;21.66;100.00;98744.28;5425328;26;3825;-70
2024/04/13 10:10:13;;;;;;;;;;;21.40;99.90;;;22.55;100.00;98735.31;5431363;26;1595;-70
2024/04/13 10:12:41;;;;;;;;;;;21.80;99.90;;;22.05;100.00;98754.81;5427995;26;1849;-70
2024/04/13 10:15:10;;;;;;;;;;;22.00;99.90;;;22.87;100.00;98740.03;5437562;26;1263;-70
2024/04/13 10:17:39;;;;;;;;;;;22.70;99.90;;;23.23;100.00;98713.59;5424222;26;1460;-70
2024/04/13 10:20:07;;;;;;;;;;;23.40;99.90;;;24.24;100.00;98702.97;5433281;26;1443;-70
2024/04/13 10:22:35;;;;;;;;;;;24.20;99.90;;;23.87;100.00;98705.09;5399883;26;2148;-70
2024/04/13 10:25:06;;;;;;;;;;;23.90;99.90;;;23.99;100.00;98704.97;5436616;26;2740;-70
2024/04/13 10:27:34;;;;;;;;;;;23.60;99.90;;;24.03;100.00;98694.13;5429960;26;1359;-69
2024/04/13 10:30:03;;;;;;;;;;;22.70;99.90;;;22.75;100.00;98727.72;5441816;26;1510;-70
2024/04/13 10:32:30;;;;;;;;;;;23.00;99.90;;;23.65;100.00;98704.13;5429300;26;1845;-70
2024/04/13 10:35:07;;;;;;;;;;;23.70;99.90;;;24.39;100.00;98695.59;5428803;26;1984;-70
2024/04/13 10:37:35;;;;;;;;;;;24.30;99.90;;;24.57;100.00;98685.31;5425141;26;2222;-70
2024/04/13 10:40:07;;;;;;;;;;;24.50;99.90;;;23.95;100.00;98677.00;5430484;26;1500;-70
2024/04/13 10:42:41;;;;;;;;;;;24.10;99.90;;;22.81;100.00;98695.50;5424516;26;1107;-70
2024/04/13 10:45:18;;;;;;;;;;;23.70;99.90;;;23.62;100.00;98677.00;5427820;26;1640;-70
2024/04/13 10:47:46;;;;;;;;;;;23.30;99.90;;;23.24;100.00;98676.41;5427041;26;1132;-70
2024/04/13 10:50:14;;;;;;;;;;;22.80;99.90;;;24.13;100.00;98676.47;5432084;26;1590;-70
2024/04/13 10:52:42;;;;;;;;;;;23.50;99.90;;;24.20;100.00;98662.63;5429488;26;3806;-70
2024/04/13 10:55:17;;;;;;;;;;;24.00;99.90;;;23.70;100.00;98664.00;5426807;26;1702;-70
2024/04/13 10:57:49;;;;;;;;;;;23.40;99.90;;;24.23;100.00;98658.03;5420813;26;1562;-70
2024/04/13 11:00:18;;;;;;;;;;;23.20;99.90;;;23.44;100.00;98661.56;5428952;26;1508;-70
2024/04/13 11:02:48;;;;;;;;;;;23.00;99.90;;;23.94;100.00;98656.75;5427848;26;1583;-70
2024/04/13 11:05:17;;;;;;;;;;;23.50;99.90;;;24.13;100.00;98656.13;5430599;26;1576;-70
2024/04/13 11:07:44;;;;;;;;;;;24.20;99.90;;;24.83;100.00;98643.31;5429635;26;1646;-70
2024/04/13 11:10:11;;;;;;;;;;;24.70;99.90;;;23.92;100.00;98647.25;5425391;26;2777;-70
2024/04/13 11:12:38;;;;;;;;;;;24.60;99.90;;;24.78;100.00;98638.38;5436277;26;1848;-70
2024/04/13 11:15:05;;;;;;;;;;;24.90;99.90;;;23.72;100.00;98644.34;5436227;26;1933;-70
2024/04/13 11:17:33;;;;;;;;;;;25.20;99.90;;;23.45;100.00;98652.69;5429900;26;1359;-69
2024/04/13 11:20:00;;;;;;;;;;;24.40;99.90;;;22.76;100.00;98660.59;5430215;26;2706;-70
2024/04/13 11:22:28;;;;;;;;;;;24.40;99.90;;;22.73;100.00;98645.78;5429065;26;1369;-70
2024/04/13 11:24:55;;;;;;;;;;;23.70;99.90;;;22.63;100.00;98655.38;5428568;26;2722;-70
2024/04/13 11:27:22;;;;;;;;;;;23.60;99.90;;;22.34;100.00;98654.91;5426815;26;1587;-69